sensor_id;sensor_type;location;lat;lon;timestamp;temperature;humidity
24148;DHT22;12309;51.450;-2.624;2023-04-25T00:02:03;7.20;99.90
24148;DHT22;12309;51.450;-2.624;2023-04-25T00:04:28;7.30;99.90
24148;DHT22;12309;51.450;-2.624;2023-04-25T00:06:55;7.20;99.90
24148;DHT22;12309;51.450;-2.624;2023-04-25T00:09:21;7.40;99.90
24148;DHT22;12309;51.450;-2.624;2023-04-25T00:14:14;7.30;99.90
24148;DHT22;12309;51.450;-2.624;2023-04-25T00:21:32;7.30;99.90
24148;DHT22;12309;51.450;-2.624;2023-04-25T00:23:59;7.30;99.90
24148;DHT22;12309;51.450;-2.624;2023-04-25T00:26:25;7.30;99.90
24148;DHT22;12309;51.450;-2.624;2023-04-25T00:28:51;7.20;99.90
24148;DHT22;12309;51.450;-2.624;2023-04-25T00:31:17;8.10;99.90
24148;DHT22;12309;51.450;-2.624;2023-04-25T00:33:42;7.20;99.90
24148;DHT22;12309;51.450;-2.624;2023-04-25T00:36:08;7.00;99.90
24148;DHT22;12309;51.450;-2.624;2023-04-25T00:38:34;7.20;99.90
24148;DHT22;12309;51.450;-2.624;2023-04-25T00:41:00;7.30;99.90
24148;DHT22;12309;51.450;-2.624;2023-04-25T00:43:30;7.20;99.90
24148;DHT22;12309;51.450;-2.624;2023-04-25T00:45:57;7.20;99.90
24148;DHT22;12309;51.450;-2.624;2023-04-25T00:48:23;7.20;99.90
24148;DHT22;12309;51.450;-2.624;2023-04-25T00:50:58;7.20;99.90
24148;DHT22;12309;51.450;-2.624;2023-04-25T00:53:26;7.20;99.90
24148;DHT22;12309;51.450;-2.624;2023-04-25T00:55:52;7.30;99.90
24148;DHT22;12309;51.450;-2.624;2023-04-25T00:58:20;7.10;99.90
24148;DHT22;12309;51.450;-2.624;2023-04-25T01:00:47;7.40;99.90
24148;DHT22;12309;51.450;-2.624;2023-04-25T01:03:16;7.20;99.90
24148;DHT22;12309;51.450;-2.624;2023-04-25T01:05:46;7.30;99.90
24148;DHT22;12309;51.450;-2.624;2023-04-25T01:08:12;7.20;99.90
24148;DHT22;12309;51.450;-2.624;2023-04-25T01:13:04;7.20;99.90
24148;DHT22;12309;51.450;-2.624;2023-04-25T01:15:30;7.20;99.90
24148;DHT22;12309;51.450;-2.624;2023-04-25T01:17:57;7.10;99.90
24148;DHT22;12309;51.450;-2.624;2023-04-25T01:20:24;7.20;99.90
24148;DHT22;12309;51.450;-2.624;2023-04-25T01:22:53;7.10;99.90
24148;DHT22;12309;51.450;-2.624;2023-04-25T01:25:21;7.20;99.90
24148;DHT22;12309;51.450;-2.624;2023-04-25T01:27:46;7.20;99.90
24148;DHT22;12309;51.450;-2.624;2023-04-25T01:30:13;7.20;99.90
24148;DHT22;12309;51.450;-2.624;2023-04-25T01:32:40;7.20;99.90
24148;DHT22;12309;51.450;-2.624;2023-04-25T01:35:09;7.10;99.90
24148;DHT22;12309;51.450;-2.624;2023-04-25T01:37:39;7.10;99.90
24148;DHT22;12309;51.450;-2.624;2023-04-25T01:40:06;7.20;99.90
24148;DHT22;12309;51.450;-2.624;2023-04-25T01:42:33;7.30;99.90
24148;DHT22;12309;51.450;-2.624;2023-04-25T01:44:58;7.10;99.90
24148;DHT22;12309;51.450;-2.624;2023-04-25T01:47:24;7.20;99.90
24148;DHT22;12309;51.450;-2.624;2023-04-25T01:49:50;7.20;99.90
24148;DHT22;12309;51.450;-2.624;2023-04-25T01:52:15;7.20;99.90
24148;DHT22;12309;51.450;-2.624;2023-04-25T01:54:41;7.20;99.90
24148;DHT22;12309;51.450;-2.624;2023-04-25T01:57:13;7.20;99.90
24148;DHT22;12309;51.450;-2.624;2023-04-25T01:59:39;7.20;99.90
24148;DHT22;12309;51.450;-2.624;2023-04-25T02:02:05;7.20;99.90
24148;DHT22;12309;51.450;-2.624;2023-04-25T02:04:30;7.10;99.90
24148;DHT22;12309;51.450;-2.624;2023-04-25T02:06:56;7.10;99.90
24148;DHT22;12309;51.450;-2.624;2023-04-25T02:09:22;7.10;99.90
24148;DHT22;12309;51.450;-2.624;2023-04-25T02:11:48;7.00;99.90
24148;DHT22;12309;51.450;-2.624;2023-04-25T02:14:14;7.10;99.90
24148;DHT22;12309;51.450;-2.624;2023-04-25T02:19:06;7.10;99.90
24148;DHT22;12309;51.450;-2.624;2023-04-25T02:21:32;6.90;99.90
24148;DHT22;12309;51.450;-2.624;2023-04-25T02:23:57;6.60;99.90
24148;DHT22;12309;51.450;-2.624;2023-04-25T02:26:23;6.90;99.90
24148;DHT22;12309;51.450;-2.624;2023-04-25T02:28:50;6.90;99.90
24148;DHT22;12309;51.450;-2.624;2023-04-25T02:31:16;6.90;99.90
24148;DHT22;12309;51.450;-2.624;2023-04-25T02:33:42;6.70;99.90
24148;DHT22;12309;51.450;-2.624;2023-04-25T02:36:07;7.50;99.90
24148;DHT22;12309;51.450;-2.624;2023-04-25T02:38:33;6.80;99.90
24148;DHT22;12309;51.450;-2.624;2023-04-25T02:40:59;6.70;99.90
24148;DHT22;12309;51.450;-2.624;2023-04-25T02:43:24;6.70;99.90
24148;DHT22;12309;51.450;-2.624;2023-04-25T02:45:50;6.60;99.90
24148;DHT22;12309;51.450;-2.624;2023-04-25T02:48:16;6.50;99.90
24148;DHT22;12309;51.450;-2.624;2023-04-25T02:50:41;6.20;99.90
24148;DHT22;12309;51.450;-2.624;2023-04-25T02:53:07;6.50;99.90
24148;DHT22;12309;51.450;-2.624;2023-04-25T02:55:33;6.30;99.90
24148;DHT22;12309;51.450;-2.624;2023-04-25T03:00:24;6.50;99.90
24148;DHT22;12309;51.450;-2.624;2023-04-25T03:02:50;6.20;99.90
24148;DHT22;12309;51.450;-2.624;2023-04-25T03:05:16;6.30;99.90
24148;DHT22;12309;51.450;-2.624;2023-04-25T03:07:42;6.30;99.90
24148;DHT22;12309;51.450;-2.624;2023-04-25T03:10:09;6.20;99.90
24148;DHT22;12309;51.450;-2.624;2023-04-25T03:12:36;6.00;99.90
24148;DHT22;12309;51.450;-2.624;2023-04-25T03:15:02;5.80;99.90
24148;DHT22;12309;51.450;-2.624;2023-04-25T03:17:27;6.10;99.90
24148;DHT22;12309;51.450;-2.624;2023-04-25T03:19:53;6.00;99.90
24148;DHT22;12309;51.450;-2.624;2023-04-25T03:22:19;5.80;99.90
24148;DHT22;12309;51.450;-2.624;2023-04-25T03:24:45;5.90;99.90
24148;DHT22;12309;51.450;-2.624;2023-04-25T03:27:10;6.00;99.90
24148;DHT22;12309;51.450;-2.624;2023-04-25T03:29:36;6.00;99.90
24148;DHT22;12309;51.450;-2.624;2023-04-25T03:32:01;6.00;99.90
24148;DHT22;12309;51.450;-2.624;2023-04-25T03:34:27;5.90;99.90
24148;DHT22;12309;51.450;-2.624;2023-04-25T03:36:53;6.10;99.90
24148;DHT22;12309;51.450;-2.624;2023-04-25T03:39:19;5.80;99.90
24148;DHT22;12309;51.450;-2.624;2023-04-25T03:41:44;5.90;99.90
24148;DHT22;12309;51.450;-2.624;2023-04-25T03:44:10;5.90;99.90
24148;DHT22;12309;51.450;-2.624;2023-04-25T03:46:35;5.80;99.90
24148;DHT22;12309;51.450;-2.624;2023-04-25T03:49:01;5.80;99.90
24148;DHT22;12309;51.450;-2.624;2023-04-25T03:51:26;5.30;99.90
24148;DHT22;12309;51.450;-2.624;2023-04-25T03:53:52;5.60;99.90
24148;DHT22;12309;51.450;-2.624;2023-04-25T03:58:45;5.60;99.90
24148;DHT22;12309;51.450;-2.624;2023-04-25T04:01:10;5.80;99.90
24148;DHT22;12309;51.450;-2.624;2023-04-25T04:03:36;5.50;99.90
24148;DHT22;12309;51.450;-2.624;2023-04-25T04:06:03;5.50;99.90
24148;DHT22;12309;51.450;-2.624;2023-04-25T04:08:29;5.40;99.90
24148;DHT22;12309;51.450;-2.624;2023-04-25T04:10:56;5.30;99.90
24148;DHT22;12309;51.450;-2.624;2023-04-25T04:13:22;5.60;99.90
24148;DHT22;12309;51.450;-2.624;2023-04-25T04:15:48;5.50;99.90
24148;DHT22;12309;51.450;-2.624;2023-04-25T04:18:13;5.30;99.90
24148;DHT22;12309;51.450;-2.624;2023-04-25T04:20:39;5.40;99.90
24148;DHT22;12309;51.450;-2.624;2023-04-25T04:23:04;5.40;99.90
24148;DHT22;12309;51.450;-2.624;2023-04-25T04:25:30;5.40;99.90
24148;DHT22;12309;51.450;-2.624;2023-04-25T04:27:56;5.30;99.90
24148;DHT22;12309;51.450;-2.624;2023-04-25T04:30:23;5.30;99.90
24148;DHT22;12309;51.450;-2.624;2023-04-25T04:32:55;5.30;99.90
24148;DHT22;12309;51.450;-2.624;2023-04-25T04:35:22;5.30;99.90
24148;DHT22;12309;51.450;-2.624;2023-04-25T04:37:47;5.30;99.90
24148;DHT22;12309;51.450;-2.624;2023-04-25T04:40:14;5.20;99.90
24148;DHT22;12309;51.450;-2.624;2023-04-25T04:42:43;4.90;99.90
24148;DHT22;12309;51.450;-2.624;2023-04-25T04:45:10;5.10;99.90
24148;DHT22;12309;51.450;-2.624;2023-04-25T04:47:36;5.10;99.90
24148;DHT22;12309;51.450;-2.624;2023-04-25T04:50:09;5.00;99.90
24148;DHT22;12309;51.450;-2.624;2023-04-25T04:52:36;4.90;99.90
24148;DHT22;12309;51.450;-2.624;2023-04-25T04:55:03;4.90;99.90
24148;DHT22;12309;51.450;-2.624;2023-04-25T04:57:29;4.90;99.90
24148;DHT22;12309;51.450;-2.624;2023-04-25T04:59:55;4.80;99.90
24148;DHT22;12309;51.450;-2.624;2023-04-25T05:02:20;4.80;99.90
24148;DHT22;12309;51.450;-2.624;2023-04-25T05:04:46;4.60;99.90
24148;DHT22;12309;51.450;-2.624;2023-04-25T05:07:12;4.90;99.90
24148;DHT22;12309;51.450;-2.624;2023-04-25T05:09:38;4.80;99.90
24148;DHT22;12309;51.450;-2.624;2023-04-25T05:12:04;4.90;99.90
24148;DHT22;12309;51.450;-2.624;2023-04-25T05:14:29;4.70;99.90
24148;DHT22;12309;51.450;-2.624;2023-04-25T05:16:55;4.60;99.90
24148;DHT22;12309;51.450;-2.624;2023-04-25T05:21:47;4.70;99.90
24148;DHT22;12309;51.450;-2.624;2023-04-25T05:24:12;4.70;99.90
24148;DHT22;12309;51.450;-2.624;2023-04-25T05:26:38;4.70;99.90
24148;DHT22;12309;51.450;-2.624;2023-04-25T05:31:31;4.60;99.90
24148;DHT22;12309;51.450;-2.624;2023-04-25T05:33:57;4.60;99.90
24148;DHT22;12309;51.450;-2.624;2023-04-25T05:36:23;4.60;99.90
24148;DHT22;12309;51.450;-2.624;2023-04-25T05:38:48;4.80;99.90
24148;DHT22;12309;51.450;-2.624;2023-04-25T05:41:14;4.60;99.90
24148;DHT22;12309;51.450;-2.624;2023-04-25T05:43:40;4.70;99.90
24148;DHT22;12309;51.450;-2.624;2023-04-25T05:46:11;4.60;99.90
24148;DHT22;12309;51.450;-2.624;2023-04-25T05:48:37;4.70;99.90
24148;DHT22;12309;51.450;-2.624;2023-04-25T05:51:02;8.40;99.90
24148;DHT22;12309;51.450;-2.624;2023-04-25T05:53:28;4.70;99.90
24148;DHT22;12309;51.450;-2.624;2023-04-25T05:55:54;4.50;99.90
24148;DHT22;12309;51.450;-2.624;2023-04-25T05:58:19;4.60;99.90
24148;DHT22;12309;51.450;-2.624;2023-04-25T06:00:45;4.70;99.90
24148;DHT22;12309;51.450;-2.624;2023-04-25T06:03:11;4.70;99.90
24148;DHT22;12309;51.450;-2.624;2023-04-25T06:05:41;3.60;99.90
24148;DHT22;12309;51.450;-2.624;2023-04-25T06:08:07;4.70;99.90
24148;DHT22;12309;51.450;-2.624;2023-04-25T06:10:33;5.30;99.90
24148;DHT22;12309;51.450;-2.624;2023-04-25T06:12:58;4.80;99.90
24148;DHT22;12309;51.450;-2.624;2023-04-25T06:15:24;4.80;99.90
24148;DHT22;12309;51.450;-2.624;2023-04-25T06:17:49;5.00;99.90
24148;DHT22;12309;51.450;-2.624;2023-04-25T06:20:15;4.90;99.90
24148;DHT22;12309;51.450;-2.624;2023-04-25T06:22:41;5.00;99.90
24148;DHT22;12309;51.450;-2.624;2023-04-25T06:25:07;5.00;99.90
24148;DHT22;12309;51.450;-2.624;2023-04-25T06:27:33;5.10;99.90
24148;DHT22;12309;51.450;-2.624;2023-04-25T06:29:59;4.80;99.90
24148;DHT22;12309;51.450;-2.624;2023-04-25T06:32:24;5.20;99.90
24148;DHT22;12309;51.450;-2.624;2023-04-25T06:34:52;5.20;99.90
24148;DHT22;12309;51.450;-2.624;2023-04-25T06:37:18;5.20;99.90
24148;DHT22;12309;51.450;-2.624;2023-04-25T06:39:44;7.60;99.90
24148;DHT22;12309;51.450;-2.624;2023-04-25T06:42:09;5.50;99.90
24148;DHT22;12309;51.450;-2.624;2023-04-25T06:47:01;5.50;99.90
24148;DHT22;12309;51.450;-2.624;2023-04-25T06:49:27;5.50;99.90
24148;DHT22;12309;51.450;-2.624;2023-04-25T06:51:52;5.70;99.90
24148;DHT22;12309;51.450;-2.624;2023-04-25T06:54:18;5.70;99.90
24148;DHT22;12309;51.450;-2.624;2023-04-25T06:56:43;5.80;99.90
24148;DHT22;12309;51.450;-2.624;2023-04-25T06:59:09;5.90;99.90
24148;DHT22;12309;51.450;-2.624;2023-04-25T07:01:35;6.20;99.90
24148;DHT22;12309;51.450;-2.624;2023-04-25T07:04:01;6.10;99.90
24148;DHT22;12309;51.450;-2.624;2023-04-25T07:06:26;5.20;99.90
24148;DHT22;12309;51.450;-2.624;2023-04-25T07:11:20;6.30;99.90
24148;DHT22;12309;51.450;-2.624;2023-04-25T07:16:11;6.40;99.90
24148;DHT22;12309;51.450;-2.624;2023-04-25T07:18:37;6.50;99.90
24148;DHT22;12309;51.450;-2.624;2023-04-25T07:21:03;6.80;99.90
24148;DHT22;12309;51.450;-2.624;2023-04-25T07:23:28;6.40;99.90
24148;DHT22;12309;51.450;-2.624;2023-04-25T07:25:54;6.70;99.90
24148;DHT22;12309;51.450;-2.624;2023-04-25T07:28:19;6.70;99.90
24148;DHT22;12309;51.450;-2.624;2023-04-25T07:30:45;6.60;99.90
24148;DHT22;12309;51.450;-2.624;2023-04-25T07:33:11;7.00;99.90
24148;DHT22;12309;51.450;-2.624;2023-04-25T07:35:36;7.00;99.90
24148;DHT22;12309;51.450;-2.624;2023-04-25T07:38:02;7.00;99.90
24148;DHT22;12309;51.450;-2.624;2023-04-25T07:40:29;7.00;99.90
24148;DHT22;12309;51.450;-2.624;2023-04-25T07:45:21;7.10;99.90
24148;DHT22;12309;51.450;-2.624;2023-04-25T07:47:46;7.20;99.90
24148;DHT22;12309;51.450;-2.624;2023-04-25T07:50:12;7.30;99.90
24148;DHT22;12309;51.450;-2.624;2023-04-25T07:52:38;7.40;99.90
24148;DHT22;12309;51.450;-2.624;2023-04-25T07:55:03;7.50;99.90
24148;DHT22;12309;51.450;-2.624;2023-04-25T07:57:29;7.80;99.90
24148;DHT22;12309;51.450;-2.624;2023-04-25T07:59:55;7.70;99.90
24148;DHT22;12309;51.450;-2.624;2023-04-25T08:02:21;7.70;99.90
24148;DHT22;12309;51.450;-2.624;2023-04-25T08:04:46;7.70;99.90
24148;DHT22;12309;51.450;-2.624;2023-04-25T08:07:12;8.20;99.90
24148;DHT22;12309;51.450;-2.624;2023-04-25T08:09:38;8.10;99.90
24148;DHT22;12309;51.450;-2.624;2023-04-25T08:12:04;8.10;99.90
24148;DHT22;12309;51.450;-2.624;2023-04-25T08:14:30;8.20;99.90
24148;DHT22;12309;51.450;-2.624;2023-04-25T08:17:01;8.80;99.90
24148;DHT22;12309;51.450;-2.624;2023-04-25T08:19:27;9.20;99.90
24148;DHT22;12309;51.450;-2.624;2023-04-25T08:21:53;10.20;99.90
24148;DHT22;12309;51.450;-2.624;2023-04-25T08:24:20;11.30;99.90
24148;DHT22;12309;51.450;-2.624;2023-04-25T08:26:46;12.00;99.90
24148;DHT22;12309;51.450;-2.624;2023-04-25T08:29:12;12.70;99.90
24148;DHT22;12309;51.450;-2.624;2023-04-25T08:31:37;12.90;48.30
24148;DHT22;12309;51.450;-2.624;2023-04-25T08:34:03;13.30;1.00
24148;DHT22;12309;51.450;-2.624;2023-04-25T08:36:28;13.30;1.00
24148;DHT22;12309;51.450;-2.624;2023-04-25T08:38:55;13.30;1.00
24148;DHT22;12309;51.450;-2.624;2023-04-25T08:41:21;12.80;1.00
24148;DHT22;12309;51.450;-2.624;2023-04-25T08:43:48;13.70;99.90
24148;DHT22;12309;51.450;-2.624;2023-04-25T08:46:17;14.50;1.00
24148;DHT22;12309;51.450;-2.624;2023-04-25T08:48:45;15.40;1.00
24148;DHT22;12309;51.450;-2.624;2023-04-25T08:51:18;15.30;1.00
24148;DHT22;12309;51.450;-2.624;2023-04-25T08:53:49;15.70;1.00
24148;DHT22;12309;51.450;-2.624;2023-04-25T08:56:16;15.60;1.00
24148;DHT22;12309;51.450;-2.624;2023-04-25T08:58:44;15.80;1.00
24148;DHT22;12309;51.450;-2.624;2023-04-25T09:01:11;15.00;1.00
24148;DHT22;12309;51.450;-2.624;2023-04-25T09:03:37;14.90;1.00
24148;DHT22;12309;51.450;-2.624;2023-04-25T09:06:03;15.60;1.00
24148;DHT22;12309;51.450;-2.624;2023-04-25T09:08:29;15.90;1.00
24148;DHT22;12309;51.450;-2.624;2023-04-25T09:10:55;16.30;1.00
24148;DHT22;12309;51.450;-2.624;2023-04-25T09:13:26;16.70;1.00
24148;DHT22;12309;51.450;-2.624;2023-04-25T09:15:54;16.60;99.90
24148;DHT22;12309;51.450;-2.624;2023-04-25T09:18:33;16.20;1.00
24148;DHT22;12309;51.450;-2.624;2023-04-25T09:23:43;15.40;1.00
24148;DHT22;12309;51.450;-2.624;2023-04-25T09:26:09;15.10;1.00
24148;DHT22;12309;51.450;-2.624;2023-04-25T09:28:35;15.80;1.00
24148;DHT22;12309;51.450;-2.624;2023-04-25T09:31:03;15.50;1.00
24148;DHT22;12309;51.450;-2.624;2023-04-25T09:33:30;14.50;23.70
24148;DHT22;12309;51.450;-2.624;2023-04-25T09:36:07;14.10;1.00
24148;DHT22;12309;51.450;-2.624;2023-04-25T09:38:46;14.20;1.00
24148;DHT22;12309;51.450;-2.624;2023-04-25T09:41:12;14.10;1.00
24148;DHT22;12309;51.450;-2.624;2023-04-25T09:43:38;14.10;1.00
24148;DHT22;12309;51.450;-2.624;2023-04-25T09:46:11;14.40;1.00
24148;DHT22;12309;51.450;-2.624;2023-04-25T09:48:37;14.50;1.00
24148;DHT22;12309;51.450;-2.624;2023-04-25T09:51:14;14.80;1.00
24148;DHT22;12309;51.450;-2.624;2023-04-25T09:53:42;15.40;1.00
24148;DHT22;12309;51.450;-2.624;2023-04-25T09:56:09;15.50;1.00
24148;DHT22;12309;51.450;-2.624;2023-04-25T09:58:37;16.20;1.00
24148;DHT22;12309;51.450;-2.624;2023-04-25T10:01:08;16.30;1.00
24148;DHT22;12309;51.450;-2.624;2023-04-25T10:03:38;16.60;1.00
24148;DHT22;12309;51.450;-2.624;2023-04-25T10:06:12;16.20;1.00
24148;DHT22;12309;51.450;-2.624;2023-04-25T10:08:38;16.70;1.00
24148;DHT22;12309;51.450;-2.624;2023-04-25T10:11:08;16.80;99.90
24148;DHT22;12309;51.450;-2.624;2023-04-25T10:13:35;17.60;1.00
24148;DHT22;12309;51.450;-2.624;2023-04-25T10:16:04;17.80;99.90
24148;DHT22;12309;51.450;-2.624;2023-04-25T10:18:31;17.90;99.90
24148;DHT22;12309;51.450;-2.624;2023-04-25T10:20:59;17.20;31.60
24148;DHT22;12309;51.450;-2.624;2023-04-25T10:23:25;18.00;99.90
24148;DHT22;12309;51.450;-2.624;2023-04-25T10:25:52;18.10;74.20
24148;DHT22;12309;51.450;-2.624;2023-04-25T10:28:18;17.70;1.00
24148;DHT22;12309;51.450;-2.624;2023-04-25T10:31:01;18.10;1.00
24148;DHT22;12309;51.450;-2.624;2023-04-25T10:33:37;18.60;1.00
24148;DHT22;12309;51.450;-2.624;2023-04-25T10:36:12;19.10;31.00
24148;DHT22;12309;51.450;-2.624;2023-04-25T10:38:39;19.20;6.30
24148;DHT22;12309;51.450;-2.624;2023-04-25T10:41:08;19.20;1.00
24148;DHT22;12309;51.450;-2.624;2023-04-25T10:43:39;19.20;1.00
24148;DHT22;12309;51.450;-2.624;2023-04-25T10:46:24;19.70;1.00
24148;DHT22;12309;51.450;-2.624;2023-04-25T10:48:52;19.80;1.00
24148;DHT22;12309;51.450;-2.624;2023-04-25T10:54:01;20.00;99.90
24148;DHT22;12309;51.450;-2.624;2023-04-25T10:56:29;18.50;1.00
24148;DHT22;12309;51.450;-2.624;2023-04-25T11:01:39;19.00;1.00
24148;DHT22;12309;51.450;-2.624;2023-04-25T11:04:05;19.60;8.70
24148;DHT22;12309;51.450;-2.624;2023-04-25T11:09:46;17.90;1.00
24148;DHT22;12309;51.450;-2.624;2023-04-25T11:12:12;18.30;1.00
24148;DHT22;12309;51.450;-2.624;2023-04-25T11:14:38;19.20;1.00
24148;DHT22;12309;51.450;-2.624;2023-04-25T11:17:04;19.50;1.00
24148;DHT22;12309;51.450;-2.624;2023-04-25T11:19:31;16.90;99.90
24148;DHT22;12309;51.450;-2.624;2023-04-25T11:21:58;16.60;99.90
24148;DHT22;12309;51.450;-2.624;2023-04-25T11:24:32;17.50;99.90
24148;DHT22;12309;51.450;-2.624;2023-04-25T11:27:02;17.00;99.90
24148;DHT22;12309;51.450;-2.624;2023-04-25T11:29:32;16.50;99.90
24148;DHT22;12309;51.450;-2.624;2023-04-25T11:31:58;16.60;99.90
24148;DHT22;12309;51.450;-2.624;2023-04-25T11:34:25;16.20;99.90
24148;DHT22;12309;51.450;-2.624;2023-04-25T11:36:52;17.40;99.90
24148;DHT22;12309;51.450;-2.624;2023-04-25T11:39:19;18.00;99.90
24148;DHT22;12309;51.450;-2.624;2023-04-25T11:41:46;17.10;99.90
24148;DHT22;12309;51.450;-2.624;2023-04-25T11:44:11;17.40;99.90
24148;DHT22;12309;51.450;-2.624;2023-04-25T11:46:37;18.40;99.90
24148;DHT22;12309;51.450;-2.624;2023-04-25T11:49:03;19.20;99.90
24148;DHT22;12309;51.450;-2.624;2023-04-25T11:51:30;17.90;99.90
24148;DHT22;12309;51.450;-2.624;2023-04-25T11:53:57;18.30;99.90
24148;DHT22;12309;51.450;-2.624;2023-04-25T11:56:22;19.30;99.90
24148;DHT22;12309;51.450;-2.624;2023-04-25T11:59:05;18.00;99.40
24148;DHT22;12309;51.450;-2.624;2023-04-25T12:01:37;17.90;42.50
24148;DHT22;12309;51.450;-2.624;2023-04-25T12:06:44;20.90;99.90
24148;DHT22;12309;51.450;-2.624;2023-04-25T12:09:14;20.50;99.90
24148;DHT22;12309;51.450;-2.624;2023-04-25T12:12:01;19.50;99.90
24148;DHT22;12309;51.450;-2.624;2023-04-25T12:14:32;18.30;1.00
24148;DHT22;12309;51.450;-2.624;2023-04-25T12:16:59;17.50;1.00
24148;DHT22;12309;51.450;-2.624;2023-04-25T12:19:29;16.80;1.00
24148;DHT22;12309;51.450;-2.624;2023-04-25T12:21:57;15.70;1.00
24148;DHT22;12309;51.450;-2.624;2023-04-25T12:24:24;15.20;1.00
24148;DHT22;12309;51.450;-2.624;2023-04-25T12:27:05;15.30;1.00
24148;DHT22;12309;51.450;-2.624;2023-04-25T12:29:34;17.70;1.00
24148;DHT22;12309;51.450;-2.624;2023-04-25T12:32:00;18.40;1.00
24148;DHT22;12309;51.450;-2.624;2023-04-25T12:34:27;19.10;1.00
24148;DHT22;12309;51.450;-2.624;2023-04-25T12:36:53;20.90;95.00
24148;DHT22;12309;51.450;-2.624;2023-04-25T12:39:20;22.00;99.90
24148;DHT22;12309;51.450;-2.624;2023-04-25T12:41:47;21.70;99.90
24148;DHT22;12309;51.450;-2.624;2023-04-25T12:44:13;22.90;99.90
24148;DHT22;12309;51.450;-2.624;2023-04-25T12:46:39;19.50;1.00
24148;DHT22;12309;51.450;-2.624;2023-04-25T12:49:06;18.00;1.00
24148;DHT22;12309;51.450;-2.624;2023-04-25T12:51:36;17.10;1.00
24148;DHT22;12309;51.450;-2.624;2023-04-25T12:54:03;18.60;1.00
24148;DHT22;12309;51.450;-2.624;2023-04-25T12:56:30;19.90;1.00
24148;DHT22;12309;51.450;-2.624;2023-04-25T12:58:55;19.60;1.00
24148;DHT22;12309;51.450;-2.624;2023-04-25T13:03:48;21.00;1.00
24148;DHT22;12309;51.450;-2.624;2023-04-25T13:06:17;22.20;1.00
24148;DHT22;12309;51.450;-2.624;2023-04-25T13:08:43;22.10;1.00
24148;DHT22;12309;51.450;-2.624;2023-04-25T13:11:09;20.30;1.00
24148;DHT22;12309;51.450;-2.624;2023-04-25T13:13:35;20.00;1.00
24148;DHT22;12309;51.450;-2.624;2023-04-25T13:16:01;19.80;1.00
24148;DHT22;12309;51.450;-2.624;2023-04-25T13:18:28;18.70;1.00
24148;DHT22;12309;51.450;-2.624;2023-04-25T13:20:54;17.50;1.00
24148;DHT22;12309;51.450;-2.624;2023-04-25T13:23:20;16.90;99.90
24148;DHT22;12309;51.450;-2.624;2023-04-25T13:25:46;16.40;99.90
24148;DHT22;12309;51.450;-2.624;2023-04-25T13:28:13;16.40;99.90
24148;DHT22;12309;51.450;-2.624;2023-04-25T13:30:39;16.40;99.90
24148;DHT22;12309;51.450;-2.624;2023-04-25T13:33:05;16.60;1.00
24148;DHT22;12309;51.450;-2.624;2023-04-25T13:35:33;16.50;99.90
24148;DHT22;12309;51.450;-2.624;2023-04-25T13:37:59;16.20;99.90
24148;DHT22;12309;51.450;-2.624;2023-04-25T13:40:25;15.90;99.90
24148;DHT22;12309;51.450;-2.624;2023-04-25T13:42:52;15.90;99.90
24148;DHT22;12309;51.450;-2.624;2023-04-25T13:45:18;15.90;99.90
24148;DHT22;12309;51.450;-2.624;2023-04-25T13:47:44;15.40;99.90
24148;DHT22;12309;51.450;-2.624;2023-04-25T13:50:09;15.60;99.90
24148;DHT22;12309;51.450;-2.624;2023-04-25T13:52:35;15.90;99.90
24148;DHT22;12309;51.450;-2.624;2023-04-25T13:55:01;15.50;99.90
24148;DHT22;12309;51.450;-2.624;2023-04-25T13:57:32;15.50;99.90
24148;DHT22;12309;51.450;-2.624;2023-04-25T13:59:57;15.80;99.90
24148;DHT22;12309;51.450;-2.624;2023-04-25T14:02:23;15.80;99.90
24148;DHT22;12309;51.450;-2.624;2023-04-25T14:04:48;15.80;99.90
24148;DHT22;12309;51.450;-2.624;2023-04-25T14:07:15;15.90;99.90
24148;DHT22;12309;51.450;-2.624;2023-04-25T14:09:41;15.30;99.90
24148;DHT22;12309;51.450;-2.624;2023-04-25T14:12:07;15.80;99.90
24148;DHT22;12309;51.450;-2.624;2023-04-25T14:14:33;15.60;99.90
24148;DHT22;12309;51.450;-2.624;2023-04-25T14:16:58;16.00;99.90
24148;DHT22;12309;51.450;-2.624;2023-04-25T14:19:24;16.20;99.90
24148;DHT22;12309;51.450;-2.624;2023-04-25T14:21:50;18.10;99.90
24148;DHT22;12309;51.450;-2.624;2023-04-25T14:24:15;20.50;1.00
24148;DHT22;12309;51.450;-2.624;2023-04-25T14:26:41;20.40;1.00
24148;DHT22;12309;51.450;-2.624;2023-04-25T14:29:08;20.40;99.90
24148;DHT22;12309;51.450;-2.624;2023-04-25T14:31:34;19.60;99.90
24148;DHT22;12309;51.450;-2.624;2023-04-25T14:34:01;19.50;99.90
24148;DHT22;12309;51.450;-2.624;2023-04-25T14:36:30;18.80;99.90
24148;DHT22;12309;51.450;-2.624;2023-04-25T14:38:56;17.50;99.90
24148;DHT22;12309;51.450;-2.624;2023-04-25T14:41:22;16.00;1.00
24148;DHT22;12309;51.450;-2.624;2023-04-25T14:43:48;15.60;18.50
24148;DHT22;12309;51.450;-2.624;2023-04-25T14:46:14;15.80;38.50
24148;DHT22;12309;51.450;-2.624;2023-04-25T14:48:39;15.80;65.40
24148;DHT22;12309;51.450;-2.624;2023-04-25T14:51:05;15.80;44.10
24148;DHT22;12309;51.450;-2.624;2023-04-25T14:53:31;15.80;22.80
24148;DHT22;12309;51.450;-2.624;2023-04-25T14:55:57;15.60;16.70
24148;DHT22;12309;51.450;-2.624;2023-04-25T14:58:23;15.10;17.30
24148;DHT22;12309;51.450;-2.624;2023-04-25T15:00:49;15.20;99.90
24148;DHT22;12309;51.450;-2.624;2023-04-25T15:03:14;15.20;1.00
24148;DHT22;12309;51.450;-2.624;2023-04-25T15:05:42;15.10;1.00
24148;DHT22;12309;51.450;-2.624;2023-04-25T15:08:08;15.00;1.00
24148;DHT22;12309;51.450;-2.624;2023-04-25T15:10:34;14.90;1.00
24148;DHT22;12309;51.450;-2.624;2023-04-25T15:12:59;15.20;1.00
24148;DHT22;12309;51.450;-2.624;2023-04-25T15:15:25;15.50;1.00
24148;DHT22;12309;51.450;-2.624;2023-04-25T15:17:52;15.30;1.00
24148;DHT22;12309;51.450;-2.624;2023-04-25T15:20:19;15.20;1.00
24148;DHT22;12309;51.450;-2.624;2023-04-25T15:22:44;14.80;1.00
24148;DHT22;12309;51.450;-2.624;2023-04-25T15:25:11;14.90;1.00
24148;DHT22;12309;51.450;-2.624;2023-04-25T15:27:38;15.60;1.00
24148;DHT22;12309;51.450;-2.624;2023-04-25T15:30:07;15.90;1.00
24148;DHT22;12309;51.450;-2.624;2023-04-25T15:32:33;17.20;22.40
24148;DHT22;12309;51.450;-2.624;2023-04-25T15:35:02;18.50;99.90
24148;DHT22;12309;51.450;-2.624;2023-04-25T15:37:28;19.70;99.90
24148;DHT22;12309;51.450;-2.624;2023-04-25T15:40:02;19.00;81.60
24148;DHT22;12309;51.450;-2.624;2023-04-25T15:42:38;19.70;99.90
24148;DHT22;12309;51.450;-2.624;2023-04-25T15:45:05;20.60;99.90
24148;DHT22;12309;51.450;-2.624;2023-04-25T15:47:31;20.60;99.90
24148;DHT22;12309;51.450;-2.624;2023-04-25T15:49:58;19.20;92.70
24148;DHT22;12309;51.450;-2.624;2023-04-25T15:52:23;18.50;11.10
24148;DHT22;12309;51.450;-2.624;2023-04-25T15:54:49;18.00;1.00
24148;DHT22;12309;51.450;-2.624;2023-04-25T15:57:15;17.00;1.00
24148;DHT22;12309;51.450;-2.624;2023-04-25T15:59:40;17.40;1.00
24148;DHT22;12309;51.450;-2.624;2023-04-25T16:02:06;16.40;1.00
24148;DHT22;12309;51.450;-2.624;2023-04-25T16:04:32;15.40;1.00
24148;DHT22;12309;51.450;-2.624;2023-04-25T16:07:03;15.40;1.00
24148;DHT22;12309;51.450;-2.624;2023-04-25T16:09:30;15.10;1.00
24148;DHT22;12309;51.450;-2.624;2023-04-25T16:11:55;15.10;1.00
24148;DHT22;12309;51.450;-2.624;2023-04-25T16:14:21;14.50;1.00